createdAt,value
2023-03-02T00:02:43.815Z,10.15
2023-03-02T00:05:49.869Z,9.63
2023-03-02T00:08:52.886Z,10.17
2023-03-02T00:11:55.843Z,10.13
2023-03-02T00:14:58.711Z,9.80
2023-03-02T00:18:01.240Z,10.52
2023-03-02T00:21:04.326Z,9.90
2023-03-02T00:24:08.007Z,9.63
2023-03-02T00:27:10.696Z,10.13
2023-03-02T00:30:15.457Z,10.00
2023-03-02T00:33:19.967Z,10.20
2023-03-02T00:36:23.460Z,9.75
2023-03-02T00:39:26.288Z,9.83
2023-03-02T00:42:29.150Z,9.65
2023-03-02T00:45:31.736Z,10.07
2023-03-02T00:48:34.448Z,10.68
2023-03-02T00:51:37.597Z,8.95
2023-03-02T00:54:40.230Z,9.67
2023-03-02T00:57:43.046Z,9.68
2023-03-02T01:00:45.918Z,9.65
2023-03-02T01:03:49.879Z,10.57
2023-03-02T01:06:53.781Z,9.98
2023-03-02T01:09:56.423Z,10.37
2023-03-02T01:12:59.365Z,10.40
2023-03-02T01:16:05.195Z,10.45
2023-03-02T01:19:08.287Z,9.60
2023-03-02T01:22:11.237Z,10.07
2023-03-02T01:25:14.209Z,10.37
2023-03-02T01:28:17.372Z,10.65
2023-03-02T01:31:20.231Z,10.02
2023-03-02T01:34:22.877Z,11.77
2023-03-02T01:37:25.532Z,11.02
2023-03-02T01:40:28.447Z,10.67
2023-03-02T01:43:31.177Z,12.18
2023-03-02T01:46:35.352Z,12.25
2023-03-02T01:49:38.892Z,11.75
2023-03-02T01:52:43.647Z,13.93
2023-03-02T01:55:47.732Z,12.77
2023-03-02T01:58:54.573Z,11.52
2023-03-02T02:02:00.638Z,13.00
2023-03-02T02:05:05.263Z,13.20
2023-03-02T02:08:09.328Z,14.90
2023-03-02T02:11:13.371Z,14.43
2023-03-02T02:14:16.344Z,14.77
2023-03-02T02:17:19.799Z,13.70
2023-03-02T02:20:32.100Z,13.73
2023-03-02T02:23:37.969Z,14.00
2023-03-02T02:26:48.041Z,15.17
2023-03-02T02:29:52.612Z,12.40
2023-03-02T02:32:58.550Z,13.27
2023-03-02T02:36:10.209Z,14.57
2023-03-02T02:39:36.549Z,15.45
2023-03-02T02:42:44.459Z,12.30
2023-03-02T02:45:50.235Z,12.43
2023-03-02T02:48:54.172Z,13.13
2023-03-02T02:51:57.454Z,14.77
2023-03-02T02:55:00.269Z,13.82
2023-03-02T02:58:13.573Z,13.50
2023-03-02T03:01:20.173Z,14.55
2023-03-02T03:04:27.498Z,17.38
2023-03-02T03:07:32.224Z,17.02
2023-03-02T03:10:40.438Z,19.05
2023-03-02T03:13:44.652Z,20.17
2023-03-02T03:16:49.590Z,20.40
2023-03-02T03:19:52.305Z,19.42
2023-03-02T03:22:55.837Z,23.45
2023-03-02T03:25:58.770Z,21.50
2023-03-02T03:29:02.050Z,22.20
2023-03-02T03:32:06.990Z,21.80
2023-03-02T03:35:11.724Z,27.55
2023-03-02T03:38:14.721Z,24.30
2023-03-02T03:41:18.618Z,22.48
2023-03-02T03:44:21.793Z,20.20
2023-03-02T03:47:24.946Z,19.50
2023-03-02T03:50:28.540Z,21.42
2023-03-02T03:53:31.880Z,18.20
2023-03-02T03:56:45.024Z,19.20
2023-03-02T03:59:48.490Z,18.97
2023-03-02T04:02:51.289Z,19.08
2023-03-02T04:05:54.974Z,20.30
2023-03-02T04:09:03.072Z,22.98
2023-03-02T04:12:07.455Z,23.13
2023-03-02T04:15:14.822Z,18.50
2023-03-02T04:18:17.835Z,19.08
2023-03-02T04:21:21.874Z,19.88
2023-03-02T04:24:25.184Z,18.33
2023-03-02T04:27:30.996Z,17.90
2023-03-02T04:30:33.714Z,18.37
2023-03-02T04:33:36.563Z,19.83
2023-03-02T04:36:40.301Z,21.90
2023-03-02T04:39:51.283Z,20.58
2023-03-02T04:42:53.866Z,18.27
2023-03-02T04:45:56.710Z,20.07
2023-03-02T04:48:59.708Z,16.55
2023-03-02T04:52:03.255Z,18.10
2023-03-02T04:55:07.645Z,18.13
2023-03-02T04:58:10.772Z,18.13
2023-03-02T05:01:15.450Z,18.93
2023-03-02T05:04:18.887Z,18.10
2023-03-02T05:07:21.763Z,18.38
2023-03-02T05:10:26.550Z,16.45
2023-03-02T05:13:29.332Z,17.48
2023-03-02T05:16:34.705Z,19.10
2023-03-02T05:19:38.458Z,18.77
2023-03-02T05:22:42.206Z,18.55
2023-03-02T05:25:44.852Z,19.92
2023-03-02T05:28:47.489Z,20.38
2023-03-02T05:31:50.698Z,19.13
2023-03-02T05:34:53.327Z,20.52
2023-03-02T05:37:56.107Z,21.85
2023-03-02T05:40:58.763Z,21.33
2023-03-02T05:44:01.849Z,21.73
2023-03-02T05:47:04.539Z,20.43
2023-03-02T05:50:07.854Z,21.25
2023-03-02T05:53:10.613Z,20.58
2023-03-02T05:56:13.210Z,22.70
2023-03-02T05:59:16.138Z,20.83
2023-03-02T06:02:18.928Z,22.73
2023-03-02T06:05:22.989Z,24.42
2023-03-02T06:08:25.857Z,19.83
2023-03-02T06:11:30.318Z,19.40
2023-03-02T06:14:33.114Z,21.83
2023-03-02T06:17:36.017Z,19.73
2023-03-02T06:20:39.468Z,19.10
2023-03-02T06:23:42.179Z,18.38
2023-03-02T06:26:48.155Z,21.52
2023-03-02T06:29:51.051Z,20.08
2023-03-02T06:32:53.741Z,21.40
2023-03-02T06:35:56.776Z,20.40
2023-03-02T06:38:59.603Z,18.88
2023-03-02T06:42:02.947Z,19.85
2023-03-02T06:45:08.116Z,19.45
2023-03-02T06:48:10.835Z,22.20
2023-03-02T06:51:13.848Z,19.30
2023-03-02T06:54:16.457Z,22.85
2023-03-02T06:57:19.116Z,20.40
2023-03-02T07:00:28.681Z,17.65
2023-03-02T07:03:32.814Z,19.87
2023-03-02T07:06:35.457Z,16.77
2023-03-02T07:09:38.004Z,20.95
2023-03-02T07:12:42.076Z,20.92
2023-03-02T07:15:44.793Z,19.17
2023-03-02T07:18:47.380Z,18.37
2023-03-02T07:21:50.086Z,20.05
2023-03-02T07:24:52.631Z,18.65
2023-03-02T07:27:55.693Z,17.83
2023-03-02T07:30:59.384Z,16.67
2023-03-02T07:34:03.462Z,18.70
2023-03-02T07:37:06.219Z,18.23
2023-03-02T07:40:11.685Z,19.33
2023-03-02T07:43:14.354Z,18.25
2023-03-02T07:46:17.127Z,16.70
2023-03-02T07:49:19.842Z,17.47
2023-03-02T07:52:42.549Z,18.85
2023-03-02T07:55:45.282Z,20.30
2023-03-02T07:58:48.146Z,19.85
2023-03-02T08:01:52.076Z,16.58
2023-03-02T08:04:56.049Z,18.63
2023-03-02T08:07:59.118Z,18.08
2023-03-02T08:11:09.282Z,18.40
2023-03-02T08:14:12.701Z,18.23
2023-03-02T08:17:15.853Z,18.42
2023-03-02T08:20:19.005Z,14.77
2023-03-02T08:23:22.936Z,17.75
2023-03-02T08:26:26.461Z,17.95
2023-03-02T08:29:30.166Z,17.10
2023-03-02T08:32:34.132Z,14.60
2023-03-02T08:35:39.348Z,15.40
2023-03-02T08:38:43.214Z,15.27
2023-03-02T08:41:47.220Z,16.20
2023-03-02T08:44:50.057Z,17.52
2023-03-02T08:47:56.762Z,19.67
2023-03-02T08:51:01.844Z,18.53
2023-03-02T08:54:10.247Z,22.40
2023-03-02T08:57:21.604Z,16.73
2023-03-02T09:00:25.643Z,14.10
2023-03-02T09:03:28.756Z,15.63
2023-03-02T09:06:34.571Z,14.33
2023-03-02T09:09:38.273Z,21.23
2023-03-02T09:12:40.988Z,14.60
2023-03-02T09:15:43.717Z,15.45
2023-03-02T09:18:47.395Z,15.73
2023-03-02T09:21:50.385Z,11.80
2023-03-02T09:24:53.267Z,12.35
2023-03-02T09:27:56.048Z,16.33
2023-03-02T09:31:00.925Z,13.68
2023-03-02T09:34:06.102Z,14.10
2023-03-02T09:37:10.428Z,14.23
2023-03-02T09:40:25.383Z,16.38
2023-03-02T09:43:39.956Z,13.75
2023-03-02T09:46:51.048Z,16.38
2023-03-02T09:50:21.027Z,12.55
2023-03-02T09:53:37.764Z,16.60
2023-03-02T09:57:19.538Z,14.55
2023-03-02T10:00:33.011Z,18.95
2023-03-02T10:03:45.485Z,13.38
2023-03-02T10:06:55.485Z,13.00
2023-03-02T10:10:21.704Z,12.33
2023-03-02T10:13:51.093Z,11.88
2023-03-02T10:17:59.578Z,13.73
2023-03-02T10:21:23.266Z,12.60
2023-03-02T10:24:46.185Z,13.13
2023-03-02T10:27:57.802Z,14.17
2023-03-02T10:31:19.005Z,12.32
2023-03-02T10:34:26.741Z,11.82
2023-03-02T10:37:32.113Z,12.25
2023-03-02T10:41:00.130Z,12.70
2023-03-02T10:44:08.043Z,11.30
2023-03-02T10:47:26.057Z,9.63
2023-03-02T10:50:37.335Z,10.15
2023-03-02T10:53:40.020Z,12.65
2023-03-02T10:56:48.117Z,12.68
2023-03-02T11:00:03.242Z,10.77
2023-03-02T11:03:23.275Z,12.65
2023-03-02T11:06:26.560Z,12.30
2023-03-02T11:09:30.251Z,11.73
2023-03-02T11:12:37.210Z,11.70
2023-03-02T11:15:49.899Z,10.27
2023-03-02T11:18:55.247Z,13.25
2023-03-02T11:22:06.096Z,12.25
2023-03-02T11:25:25.463Z,11.27
2023-03-02T11:28:49.177Z,11.18
2023-03-02T11:31:56.737Z,11.40
2023-03-02T11:35:15.014Z,11.30
2023-03-02T11:38:30.485Z,12.30
2023-03-02T11:42:12.437Z,12.35
2023-03-02T11:45:34.894Z,9.68
2023-03-02T11:48:42.970Z,12.40
2023-03-02T11:52:01.156Z,11.60
2023-03-02T11:55:18.527Z,10.30
2023-03-02T11:58:24.809Z,12.45
2023-03-02T12:01:28.331Z,12.20
2023-03-02T12:04:36.059Z,11.13
2023-03-02T12:07:41.123Z,11.80
2023-03-02T12:10:56.958Z,11.40
2023-03-02T12:14:02.541Z,14.25
2023-03-02T12:17:27.312Z,13.15
2023-03-02T12:20:31.487Z,10.87
2023-03-02T12:23:41.033Z,14.63
2023-03-02T12:26:44.153Z,12.60
2023-03-02T12:30:18.914Z,12.85
2023-03-02T12:33:22.070Z,14.18
2023-03-02T12:36:44.859Z,13.63
2023-03-02T12:40:12.657Z,11.13
2023-03-02T12:43:29.144Z,12.93
2023-03-02T12:46:37.342Z,9.45
2023-03-02T12:49:50.252Z,15.40
2023-03-02T12:53:01.879Z,12.30
2023-03-02T12:56:09.152Z,13.85
2023-03-02T12:59:27.146Z,12.93
2023-03-02T13:02:36.502Z,14.13
2023-03-02T13:05:39.232Z,13.45
2023-03-02T13:08:48.064Z,13.00
2023-03-02T13:11:54.808Z,12.07
2023-03-02T13:14:59.409Z,12.02
2023-03-02T13:18:02.153Z,14.05
2023-03-02T13:21:06.373Z,12.02
2023-03-02T13:24:34.688Z,13.23
2023-03-02T13:27:37.299Z,11.10
2023-03-02T13:30:47.994Z,12.35
2023-03-02T13:33:53.626Z,12.07
2023-03-02T13:36:56.639Z,11.95
2023-03-02T13:40:01.897Z,11.63
2023-03-02T13:43:08.846Z,14.05
2023-03-02T13:46:11.600Z,12.70
2023-03-02T13:49:14.343Z,12.90
2023-03-02T13:52:24.761Z,12.88
2023-03-02T13:55:27.831Z,13.03
2023-03-02T13:58:34.262Z,12.45
2023-03-02T14:01:38.327Z,14.60
2023-03-02T14:04:41.136Z,12.85
2023-03-02T14:07:46.556Z,12.23
2023-03-02T14:10:51.747Z,10.80
2023-03-02T14:13:55.788Z,15.15
2023-03-02T14:16:58.605Z,12.75
2023-03-02T14:20:01.599Z,12.18
2023-03-02T14:23:06.846Z,12.80
2023-03-02T14:26:36.221Z,11.27
2023-03-02T14:29:39.754Z,15.32
2023-03-02T14:32:42.623Z,12.18
2023-03-02T14:35:45.553Z,13.30
2023-03-02T14:38:48.160Z,12.65
2023-03-02T14:41:54.091Z,14.43
2023-03-02T14:44:57.870Z,15.57
2023-03-02T14:48:01.456Z,13.85
2023-03-02T14:51:07.047Z,15.75
2023-03-02T14:54:18.118Z,10.35
2023-03-02T14:57:26.906Z,16.07
2023-03-02T15:00:31.537Z,11.30
2023-03-02T15:03:34.500Z,11.32
2023-03-02T15:06:39.939Z,12.68
2023-03-02T15:09:45.641Z,12.52
2023-03-02T15:12:48.754Z,11.43
2023-03-02T15:15:52.889Z,14.93
2023-03-02T15:18:58.750Z,11.18
2023-03-02T15:22:02.761Z,10.52
2023-03-02T15:25:05.994Z,11.38
2023-03-02T15:28:10.257Z,12.33
2023-03-02T15:31:15.877Z,13.52
2023-03-02T15:34:18.557Z,13.07
2023-03-02T15:37:22.310Z,14.45
2023-03-02T15:40:26.467Z,13.30
2023-03-02T15:43:29.432Z,10.87
2023-03-02T15:46:32.150Z,11.63
2023-03-02T15:49:34.806Z,14.10
2023-03-02T15:52:37.365Z,13.10
2023-03-02T15:55:42.789Z,12.90
2023-03-02T15:58:47.909Z,13.43
2023-03-02T16:01:50.929Z,10.55
2023-03-02T16:04:54.026Z,14.05
2023-03-02T16:07:56.732Z,13.52
2023-03-02T16:11:02.146Z,11.80
2023-03-02T16:14:05.133Z,15.57
2023-03-02T16:17:09.325Z,13.95
2023-03-02T16:20:12.683Z,14.68
2023-03-02T16:23:16.207Z,13.15
2023-03-02T16:26:21.395Z,12.27
2023-03-02T16:29:24.367Z,15.80
2023-03-02T16:32:27.614Z,13.95
2023-03-02T16:35:32.033Z,12.30
2023-03-02T16:38:37.059Z,12.35
2023-03-02T16:41:42.124Z,13.05
2023-03-02T16:44:46.313Z,13.63
2023-03-02T16:47:49.570Z,11.57
2023-03-02T16:50:58.183Z,15.40
2023-03-02T16:54:01.636Z,13.10
2023-03-02T16:57:04.821Z,12.10
2023-03-02T17:00:11.056Z,12.03
2023-03-02T17:03:15.876Z,12.52
2023-03-02T17:06:22.663Z,17.58
2023-03-02T17:09:25.282Z,12.73
2023-03-02T17:12:28.116Z,14.95
2023-03-02T17:15:30.927Z,15.97
2023-03-02T17:18:34.250Z,15.43
2023-03-02T17:21:37.491Z,14.57
2023-03-02T17:24:41.323Z,16.27
2023-03-02T17:27:47.561Z,21.23
2023-03-02T17:30:52.181Z,15.50
2023-03-02T17:33:56.368Z,16.02
2023-03-02T17:37:00.695Z,19.02
2023-03-02T17:40:04.826Z,18.95
2023-03-02T17:43:08.514Z,16.08
2023-03-02T17:46:22.993Z,20.80
2023-03-02T17:49:26.689Z,17.33
2023-03-02T17:52:30.029Z,19.80
2023-03-02T17:55:32.971Z,21.00
2023-03-02T17:58:44.948Z,18.83
2023-03-02T18:01:48.872Z,19.63
2023-03-02T18:04:52.040Z,20.48
2023-03-02T18:07:55.131Z,19.77
2023-03-02T18:11:00.478Z,19.17
2023-03-02T18:14:03.517Z,21.33
2023-03-02T18:17:08.867Z,19.17
2023-03-02T18:20:12.798Z,20.02
2023-03-02T18:23:16.812Z,19.92
2023-03-02T18:26:23.942Z,17.17
2023-03-02T18:29:28.703Z,20.83
2023-03-02T18:32:32.642Z,18.67
2023-03-02T18:35:38.686Z,20.75
2023-03-02T18:38:42.436Z,22.77
2023-03-02T18:41:46.323Z,18.13
2023-03-02T18:44:51.123Z,25.20
2023-03-02T18:47:55.513Z,18.63
2023-03-02T18:51:00.029Z,17.70
2023-03-02T18:54:04.173Z,21.58
2023-03-02T18:57:09.055Z,17.98
2023-03-02T19:00:22.585Z,18.60
2023-03-02T19:03:25.932Z,20.17
2023-03-02T19:06:30.011Z,18.80
2023-03-02T19:09:34.553Z,20.25
2023-03-02T19:12:38.248Z,20.02
2023-03-02T19:15:43.176Z,18.95
2023-03-02T19:18:47.652Z,20.80
2023-03-02T19:21:52.173Z,19.95
2023-03-02T19:24:55.766Z,18.10
2023-03-02T19:27:59.655Z,18.25
2023-03-02T19:31:07.162Z,17.10
2023-03-02T19:34:11.029Z,17.23
2023-03-02T19:37:15.873Z,20.67
2023-03-02T19:40:24.150Z,17.73
2023-03-02T19:43:28.728Z,18.63
2023-03-02T19:46:32.474Z,18.38
2023-03-02T19:49:38.283Z,18.10
2023-03-02T19:52:42.574Z,17.48
2023-03-02T19:55:48.147Z,16.08
2023-03-02T19:58:55.255Z,18.33
2023-03-02T20:02:00.611Z,15.40
2023-03-02T20:05:05.984Z,18.73
2023-03-02T20:08:09.797Z,18.88
2023-03-02T20:11:13.689Z,18.30
2023-03-02T20:14:31.550Z,15.85
2023-03-02T20:17:36.815Z,21.88
2023-03-02T20:20:41.402Z,15.50
2023-03-02T20:23:46.983Z,17.65
2023-03-02T20:26:50.840Z,16.95
2023-03-02T20:29:54.750Z,18.95
2023-03-02T20:33:01.123Z,16.83
2023-03-02T20:36:05.892Z,17.37
2023-03-02T20:39:26.181Z,16.92
2023-03-02T20:42:33.345Z,17.17
2023-03-02T20:45:37.295Z,16.83
2023-03-02T20:48:41.272Z,16.90
2023-03-02T20:51:49.476Z,17.90
2023-03-02T20:54:53.073Z,16.00
2023-03-02T20:57:57.432Z,17.13
2023-03-02T21:01:02.593Z,14.88
2023-03-02T21:04:06.010Z,17.52
2023-03-02T21:07:10.321Z,15.83
2023-03-02T21:10:23.361Z,17.05
2023-03-02T21:13:28.522Z,16.40
2023-03-02T21:16:37.623Z,16.67
2023-03-02T21:19:40.996Z,18.55
2023-03-02T21:22:45.114Z,15.83
2023-03-02T21:25:48.459Z,16.48
2023-03-02T21:28:51.469Z,16.90
2023-03-02T21:31:56.001Z,15.98
2023-03-02T21:35:00.166Z,17.52
2023-03-02T21:38:05.167Z,17.27
2023-03-02T21:41:09.110Z,14.68
2023-03-02T21:44:14.441Z,15.50
2023-03-02T21:47:17.498Z,14.80
2023-03-02T21:50:27.894Z,16.67
2023-03-02T21:53:30.931Z,15.67
2023-03-02T21:56:33.789Z,16.50
2023-03-02T21:59:37.390Z,15.80
2023-03-02T22:02:39.904Z,13.93
2023-03-02T22:05:42.564Z,19.58
2023-03-02T22:08:45.228Z,17.83
2023-03-02T22:11:49.445Z,15.98
2023-03-02T22:14:53.724Z,13.82
2023-03-02T22:17:56.698Z,14.10
2023-03-02T22:20:59.807Z,16.00
2023-03-02T22:24:08.262Z,14.93
2023-03-02T22:27:30.809Z,15.07
2023-03-02T22:30:34.371Z,14.88
2023-03-02T22:33:37.228Z,15.35
2023-03-02T22:36:39.867Z,15.65
2023-03-02T22:39:42.581Z,14.47
2023-03-02T22:42:45.194Z,15.18
2023-03-02T22:45:47.831Z,15.82
2023-03-02T22:48:52.632Z,14.70
2023-03-02T22:52:00.743Z,16.40
2023-03-02T22:55:37.105Z,15.03
2023-03-02T22:58:46.095Z,15.07
2023-03-02T23:01:49.243Z,14.50
2023-03-02T23:04:51.996Z,15.60
2023-03-02T23:08:22.541Z,13.82
2023-03-02T23:11:26.921Z,13.47
2023-03-02T23:14:39.256Z,15.00
2023-03-02T23:17:41.799Z,12.80
2023-03-02T23:20:44.689Z,14.38
2023-03-02T23:23:48.908Z,14.77
2023-03-02T23:26:52.422Z,15.40
2023-03-02T23:29:55.071Z,15.00
2023-03-02T23:32:57.733Z,13.65
2023-03-02T23:36:00.928Z,15.82
2023-03-02T23:39:07.535Z,13.95
2023-03-02T23:42:12.634Z,12.60
2023-03-02T23:45:16.386Z,13.75
2023-03-02T23:48:19.032Z,12.88
2023-03-02T23:51:23.226Z,13.77
2023-03-02T23:54:25.842Z,14.77
2023-03-02T23:57:28.560Z,12.90
